Time;durP1;ratioP1;P1;durP2;ratioP2;P2;SDS_P1;SDS_P2;PMS_P1;PMS_P2;Temp;Humidity;BMP_temperature;BMP_pressure;BME280_temperature;BME280_humidity;BME280_pressure;Samples;Min_cycle;Max_cycle;Signal;HPM_P1;HPM_P2
2021/11/01 00:00:37;;;;;;;32.30;18.17;;;3.90;99.90;;;;;;5096394;28;20536;-70
2021/11/01 00:03:03;;;;;;;38.33;19.92;;;3.80;99.90;;;;;;5096595;28;20043;-69
2021/11/01 00:05:29;;;;;;;35.10;21.38;;;3.80;99.90;;;;;;5096373;28;20027;-69
2021/11/01 00:07:54;;;;;;;35.53;21.23;;;3.70;99.90;;;;;;5096174;28;20111;-70
2021/11/01 00:10:21;;;;;;;39.25;24.70;;;3.50;99.90;;;;;;5094803;28;20492;-70
2021/11/01 00:12:46;;;;;;;33.88;23.42;;;3.20;99.90;;;;;;5096381;28;20028;-70
2021/11/01 00:15:12;;;;;;;32.95;19.98;;;3.00;99.90;;;;;;5096184;28;20453;-69
2021/11/01 00:17:38;;;;;;;34.65;21.27;;;2.80;99.90;;;;;;5094893;28;20061;-69
2021/11/01 00:20:06;;;;;;;31.08;19.70;;;2.80;99.90;;;;;;5096212;28;20016;-69
2021/11/01 00:22:33;;;;;;;32.45;19.70;;;2.80;99.90;;;;;;5094539;28;20540;-69
2021/11/01 00:24:59;;;;;;;29.52;16.70;;;2.80;99.90;;;;;;5096018;28;20028;-69
2021/11/01 00:27:24;;;;;;;26.15;15.75;;;2.80;99.90;;;;;;5096101;28;20035;-70
2021/11/01 00:29:50;;;;;;;27.65;15.55;;;3.00;99.90;;;;;;5095491;28;20012;-69
2021/11/01 00:32:16;;;;;;;22.70;14.77;;;3.10;99.90;;;;;;5095899;28;20389;-70
2021/11/01 00:34:42;;;;;;;25.88;16.52;;;3.10;99.90;;;;;;5095893;28;20031;-71
2021/11/01 00:37:08;;;;;;;30.42;16.45;;;3.10;99.90;;;;;;5095921;28;20383;-69
2021/11/01 00:39:34;;;;;;;24.13;15.00;;;3.00;99.90;;;;;;5095736;28;20028;-70
2021/11/01 00:42:01;;;;;;;30.77;15.60;;;3.00;99.90;;;;;;5095775;28;20486;-70
2021/11/01 00:44:26;;;;;;;23.63;13.73;;;3.00;99.90;;;;;;5087202;28;20481;-69
2021/11/01 00:46:52;;;;;;;27.45;14.90;;;3.00;99.90;;;;;;5075506;28;20025;-70
2021/11/01 00:49:18;;;;;;;24.02;14.82;;;3.10;99.90;;;;;;5094019;28;20028;-69
2021/11/01 00:51:44;;;;;;;23.52;14.80;;;3.20;99.90;;;;;;5095538;28;20043;-70
2021/11/01 00:54:12;;;;;;;23.23;13.43;;;3.30;99.90;;;;;;5083370;28;20029;-69
2021/11/01 00:56:38;;;;;;;24.05;12.73;;;3.40;99.90;;;;;;5075257;28;20017;-69
2021/11/01 00:59:04;;;;;;;23.10;14.70;;;3.50;99.90;;;;;;5073914;28;20023;-69
2021/11/01 01:01:32;;;;;;;25.45;13.93;;;3.50;99.90;;;;;;5089460;28;20056;-69
2021/11/01 01:03:58;;;;;;;28.55;15.77;;;3.50;99.90;;;;;;5084318;28;20023;-69
2021/11/01 01:06:24;;;;;;;25.42;14.55;;;3.60;99.90;;;;;;5074353;28;20020;-69
2021/11/01 01:08:50;;;;;;;27.13;14.00;;;3.60;99.90;;;;;;5073766;28;20060;-69
2021/11/01 01:11:16;;;;;;;24.40;13.32;;;3.60;99.90;;;;;;5073616;28;20446;-69
2021/11/01 01:13:42;;;;;;;20.15;13.18;;;3.70;99.90;;;;;;5074978;28;20363;-70
2021/11/01 01:18:39;;;;;;;21.98;12.65;;;3.80;99.90;;;;;;5095344;28;20107;-69
2021/11/01 01:23:50;;;;;;;20.75;11.73;;;4.00;99.90;;;;;;5095023;28;20035;-69
2021/11/01 01:26:16;;;;;;;17.73;11.13;;;4.00;99.90;;;;;;5094852;28;20016;-70
2021/11/01 01:28:42;;;;;;;17.80;11.38;;;4.10;99.90;;;;;;5094842;28;20032;-71
2021/11/01 01:31:08;;;;;;;23.10;13.32;;;4.20;99.90;;;;;;5094792;28;20077;-69
2021/11/01 01:33:34;;;;;;;20.23;12.77;;;4.30;99.90;;;;;;5094803;28;20016;-70
2021/11/01 01:36:00;;;;;;;24.55;13.23;;;4.20;99.90;;;;;;5094718;28;20431;-69
2021/11/01 01:38:26;;;;;;;19.75;12.05;;;4.30;99.90;;;;;;5094602;28;20047;-70
2021/11/01 01:40:54;;;;;;;22.83;13.88;;;4.20;99.90;;;;;;5093321;28;20370;-69
2021/11/01 01:43:20;;;;;;;21.45;11.38;;;4.30;99.90;;;;;;5094560;28;20030;-69
2021/11/01 01:45:46;;;;;;;18.35;11.32;;;4.30;99.90;;;;;;5094496;28;20020;-69
2021/11/01 01:48:13;;;;;;;20.70;11.70;;;4.30;99.90;;;;;;5094529;28;20024;-70
2021/11/01 01:50:39;;;;;;;19.80;12.05;;;4.30;99.90;;;;;;5094267;28;20455;-69
2021/11/01 01:53:06;;;;;;;19.33;11.63;;;4.20;99.90;;;;;;5094102;28;20069;-70
2021/11/01 01:55:34;;;;;;;17.63;11.23;;;4.20;99.90;;;;;;5092712;28;20065;-70
2021/11/01 01:58:00;;;;;;;18.77;11.90;;;4.20;99.90;;;;;;5093042;28;20016;-69
2021/11/01 02:02:52;;;;;;;18.42;11.48;;;4.10;99.90;;;;;;5094272;28;20028;-70
2021/11/01 02:05:18;;;;;;;18.27;10.90;;;4.00;99.90;;;;;;5094106;28;20534;-69
2021/11/01 02:07:53;;;;;;;16.85;11.70;;;4.00;99.90;;;;;;5094098;28;20146;-70
2021/11/01 02:10:29;;;;;;;18.42;12.25;;;4.00;99.90;;;;;;5093842;28;20047;-68
2021/11/01 02:13:04;;;;;;;22.88;12.60;;;4.10;99.90;;;;;;5094112;28;20401;-69
2021/11/01 02:15:37;;;;;;;21.05;12.05;;;4.00;99.90;;;;;;5093926;28;20027;-69
2021/11/01 02:18:05;;;;;;;23.20;13.20;;;4.00;99.90;;;;;;5092991;28;20044;-69
2021/11/01 02:20:48;;;;;;;22.98;12.20;;;4.00;99.90;;;;;;5092480;28;20016;-70
2021/11/01 02:23:14;;;;;;;20.60;12.40;;;3.90;99.90;;;;;;5092321;28;20397;-69
2021/11/01 02:25:41;;;;;;;16.42;10.82;;;3.90;99.90;;;;;;5093730;28;20031;-69
2021/11/01 02:28:09;;;;;;;22.33;11.52;;;3.80;99.90;;;;;;5093882;28;20016;-69
2021/11/01 02:30:38;;;;;;;19.05;11.18;;;3.70;99.90;;;;;;5093533;28;20044;-69
2021/11/01 02:33:05;;;;;;;17.10;10.82;;;3.60;99.90;;;;;;5093727;28;20024;-69
2021/11/01 02:35:31;;;;;;;19.33;11.07;;;3.60;99.90;;;;;;5092249;28;20451;-69
2021/11/01 02:37:58;;;;;;;19.27;11.02;;;3.60;99.90;;;;;;5092074;28;20503;-69
2021/11/01 02:40:28;;;;;;;23.45;11.55;;;3.70;99.90;;;;;;5093203;28;20024;-69
2021/11/01 02:42:55;;;;;;;19.13;10.82;;;3.80;99.90;;;;;;5093474;28;20027;-69
2021/11/01 02:45:21;;;;;;;21.40;12.20;;;3.90;99.90;;;;;;5093374;28;20024;-69
2021/11/01 02:47:47;;;;;;;20.83;11.95;;;4.00;99.90;;;;;;5093424;28;20016;-69
2021/11/01 02:50:15;;;;;;;19.65;10.73;;;4.10;99.90;;;;;;5093303;28;20065;-69
2021/11/01 02:52:41;;;;;;;22.80;12.13;;;4.20;99.90;;;;;;5093169;28;20069;-69
2021/11/01 02:55:08;;;;;;;18.67;11.10;;;4.20;99.90;;;;;;5091964;28;20032;-69
2021/11/01 02:57:34;;;;;;;21.02;12.82;;;4.20;99.90;;;;;;5093505;28;20012;-70
2021/11/01 03:00:00;;;;;;;18.85;11.43;;;4.10;99.90;;;;;;5092952;28;20045;-69
2021/11/01 03:02:27;;;;;;;22.88;12.90;;;4.00;99.90;;;;;;5093230;28;20020;-69
2021/11/01 03:04:53;;;;;;;20.77;12.20;;;4.00;99.90;;;;;;5091957;28;20035;-69
2021/11/01 03:07:20;;;;;;;18.58;11.75;;;4.00;99.90;;;;;;5093093;28;20482;-69
2021/11/01 03:09:47;;;;;;;21.77;12.35;;;4.00;99.90;;;;;;5093321;28;20034;-69
2021/11/01 03:12:17;;;;;;;18.55;12.68;;;3.90;99.90;;;;;;5091764;28;20036;-69
2021/11/01 03:14:49;;;;;;;19.52;11.75;;;3.90;99.90;;;;;;5092833;28;20024;-69
2021/11/01 03:17:18;;;;;;;17.13;11.23;;;3.90;99.90;;;;;;5093097;28;20099;-69
2021/11/01 03:19:47;;;;;;;19.65;10.73;;;3.90;99.90;;;;;;5092914;28;20016;-69
2021/11/01 03:22:14;;;;;;;19.88;11.43;;;3.90;99.90;;;;;;5091798;28;20016;-69
2021/11/01 03:24:45;;;;;;;23.38;11.93;;;3.90;99.90;;;;;;5092943;28;20013;-69
2021/11/01 03:27:14;;;;;;;21.67;12.70;;;3.90;99.90;;;;;;5091729;28;20044;-69
2021/11/01 03:29:41;;;;;;;23.38;13.77;;;3.90;99.90;;;;;;5095055;28;20489;-69
2021/11/01 03:32:09;;;;;;;25.17;12.40;;;3.90;99.90;;;;;;5097141;28;20557;-69
2021/11/01 03:34:35;;;;;;;19.13;11.77;;;3.90;99.90;;;;;;5095738;28;20574;-69
2021/11/01 03:37:10;;;;;;;18.30;11.57;;;3.80;99.90;;;;;;5097044;28;20544;-69
2021/11/01 03:39:38;;;;;;;15.35;10.60;;;3.80;99.90;;;;;;5096943;28;20031;-69
2021/11/01 03:42:07;;;;;;;20.75;11.80;;;3.80;99.90;;;;;;5097016;28;20015;-69
2021/11/01 03:44:34;;;;;;;21.08;11.40;;;3.70;99.90;;;;;;5096535;28;20050;-69
2021/11/01 03:47:03;;;;;;;19.50;11.02;;;3.70;99.90;;;;;;5096863;28;20048;-68
2021/11/01 03:49:31;;;;;;;17.48;10.75;;;3.80;99.90;;;;;;5096714;28;20067;-69
2021/11/01 03:54:31;;;;;;;16.70;10.82;;;3.90;99.90;;;;;;5096682;28;20024;-69
2021/11/01 03:56:58;;;;;;;17.17;10.18;;;3.90;99.90;;;;;;5096405;28;20420;-71
2021/11/01 03:59:25;;;;;;;18.88;11.63;;;4.00;99.90;;;;;;5096536;28;20024;-69
2021/11/01 04:01:51;;;;;;;19.35;11.07;;;4.00;99.90;;;;;;5096594;28;20021;-69
2021/11/01 04:04:17;;;;;;;16.58;11.48;;;3.90;99.90;;;;;;5096438;28;20040;-69
2021/11/01 04:06:44;;;;;;;15.52;11.40;;;3.90;99.90;;;;;;5095211;28;20412;-69
2021/11/01 04:09:13;;;;;;;18.27;9.85;;;3.90;99.90;;;;;;5096533;28;20020;-69
2021/11/01 04:11:43;;;;;;;17.45;11.60;;;3.90;99.90;;;;;;5096247;28;20474;-69
2021/11/01 04:14:18;;;;;;;19.08;11.77;;;3.80;99.90;;;;;;5095390;28;20027;-69
2021/11/01 04:16:47;;;;;;;16.30;9.73;;;3.90;99.90;;;;;;5096324;28;20021;-69
2021/11/01 04:21:39;;;;;;;16.42;9.98;;;3.90;99.90;;;;;;5096767;28;20032;-69
2021/11/01 04:24:06;;;;;;;23.38;11.23;;;3.90;99.90;;;;;;5096202;28;20070;-69
2021/11/01 04:26:32;;;;;;;16.90;9.93;;;3.90;99.90;;;;;;5094761;28;20051;-69
2021/11/01 04:28:59;;;;;;;15.00;9.43;;;3.90;99.90;;;;;;5096003;28;20031;-69
2021/11/01 04:31:32;;;;;;;16.90;10.25;;;3.90;99.90;;;;;;5095875;28;20031;-69
2021/11/01 04:34:02;;;;;;;18.95;10.32;;;3.90;99.90;;;;;;5094686;28;20382;-69
2021/11/01 04:36:29;;;;;;;13.65;9.32;;;3.90;99.90;;;;;;5094877;28;20381;-69
2021/11/01 04:53:11;;;;;;;19.25;9.50;;;3.80;99.90;;;;;;5085021;28;20052;-69
2021/11/01 04:55:36;;;;;;;15.60;8.93;;;3.70;99.90;;;;;;5086878;28;20099;-69
2021/11/01 04:58:03;;;;;;;15.60;9.10;;;3.70;99.90;;;;;;5081177;28;20155;-70
2021/11/01 05:00:28;;;;;;;15.05;9.60;;;3.70;99.90;;;;;;5082041;28;20073;-69
2021/11/01 05:05:38;;;;;;;14.43;9.05;;;3.70;99.90;;;;;;5083631;28;20031;-69
2021/11/01 05:08:05;;;;;;;13.25;8.70;;;3.60;99.90;;;;;;5084886;28;20429;-69
2021/11/01 05:10:39;;;;;;;16.05;9.32;;;3.70;99.90;;;;;;5088029;28;20102;-69
2021/11/01 05:13:10;;;;;;;16.60;9.18;;;3.70;99.90;;;;;;5081839;28;20028;-69
2021/11/01 05:15:44;;;;;;;18.35;9.68;;;3.60;99.90;;;;;;5082803;28;20035;-69
2021/11/01 05:20:49;;;;;;;13.45;8.90;;;3.60;99.90;;;;;;5084462;28;20028;-69
2021/11/01 05:26:07;;;;;;;14.02;8.32;;;3.60;99.90;;;;;;5086751;28;20036;-69
2021/11/01 05:28:51;;;;;;;15.52;8.45;;;3.60;99.90;;;;;;5085819;28;20031;-69
2021/11/01 05:31:23;;;;;;;16.45;9.77;;;3.60;99.90;;;;;;5081668;28;20084;-68
2021/11/01 05:36:15;;;;;;;13.25;8.70;;;3.50;99.90;;;;;;5088443;28;20032;-69
2021/11/01 05:38:41;;;;;;;12.95;8.57;;;3.60;99.90;;;;;;5077309;28;20535;-70
2021/11/01 05:41:08;;;;;;;12.68;8.20;;;3.60;99.90;;;;;;5085697;28;20031;-69
2021/11/01 05:43:34;;;;;;;12.23;7.93;;;3.80;99.90;;;;;;5083143;28;20087;-69
2021/11/01 05:46:00;;;;;;;13.45;8.25;;;3.80;99.90;;;;;;5085806;28;20034;-69
2021/11/01 05:48:26;;;;;;;13.98;8.18;;;3.90;99.90;;;;;;5083351;28;20020;-69
2021/11/01 05:50:52;;;;;;;15.82;9.07;;;3.90;99.90;;;;;;5081457;28;20036;-69
2021/11/01 05:53:17;;;;;;;15.25;9.15;;;3.90;99.90;;;;;;5084205;28;20036;-71
2021/11/01 05:58:26;;;;;;;17.05;9.30;;;3.80;99.90;;;;;;5082196;28;20059;-69
2021/11/01 06:03:41;;;;;;;16.27;9.43;;;3.80;99.90;;;;;;5079667;28;20043;-69
2021/11/01 06:13:53;;;;;;;18.27;12.88;;;4.00;99.90;;;;;;5084708;28;20028;-69
2021/11/01 06:16:19;;;;;;;22.23;13.93;;;4.00;99.90;;;;;;5086255;27;20032;-69
2021/11/01 06:18:45;;;;;;;18.92;11.10;;;4.10;99.90;;;;;;5080612;28;20035;-69
2021/11/01 06:21:17;;;;;;;21.48;13.50;;;4.10;99.90;;;;;;5080393;28;20332;-69
2021/11/01 06:23:51;;;;;;;18.40;11.32;;;4.20;99.90;;;;;;5084656;28;20031;-69
2021/11/01 06:26:18;;;;;;;16.58;10.85;;;4.30;99.90;;;;;;5084805;27;20508;-70
2021/11/01 06:28:51;;;;;;;13.40;8.93;;;4.40;99.90;;;;;;5090491;28;20082;-69
2021/11/01 06:31:22;;;;;;;15.27;9.80;;;4.50;99.90;;;;;;5088148;27;20034;-69
2021/11/01 06:55:22;;;;;;;14.65;9.27;;;5.90;99.90;;;;;;5087051;28;20032;-70
2021/11/01 08:36:03;;;;;;;54.50;21.85;;;10.50;71.00;;;;;;5084300;28;20075;-70
2021/11/01 08:41:35;;;;;;;49.80;21.02;;;10.80;70.80;;;;;;5084136;28;20054;-69
2021/11/01 09:27:34;;;;;;;19.30;11.45;;;12.60;65.20;;;;;;5089274;27;20024;-71
2021/11/01 09:30:16;;;;;;;15.18;8.57;;;12.70;64.10;;;;;;5084106;28;20020;-69
2021/11/01 09:35:50;;;;;;;16.08;10.18;;;13.00;63.40;;;;;;5078784;28;20556;-70
2021/11/01 09:43:27;;;;;;;13.93;8.77;;;13.30;62.30;;;;;;5080418;28;20119;-70
2021/11/01 09:45:55;;;;;;;15.07;8.60;;;13.50;60.40;;;;;;5091371;28;20153;-70
2021/11/01 09:48:22;;;;;;;11.65;7.95;;;13.60;59.50;;;;;;5078178;28;20028;-70
2021/11/01 09:50:49;;;;;;;10.43;6.68;;;13.70;59.70;;;;;;5089076;28;20028;-70
2021/11/01 09:53:24;;;;;;;10.68;6.93;;;13.80;58.70;;;;;;5089939;28;20028;-70
2021/11/01 09:55:55;;;;;;;8.10;5.50;;;13.90;58.10;;;;;;5091733;28;20475;-70
2021/11/01 10:01:11;;;;;;;5.90;4.55;;;14.30;55.10;;;;;;5090447;28;20035;-70
2021/11/01 10:03:42;;;;;;;5.85;4.90;;;14.40;52.40;;;;;;5091809;28;20378;-70
2021/11/01 10:06:12;;;;;;;7.38;4.38;;;14.50;52.30;;;;;;5093127;28;20169;-70
2021/11/01 10:08:37;;;;;;;5.47;4.60;;;14.50;52.50;;;;;;5090902;28;20020;-70
2021/11/01 10:11:14;;;;;;;4.70;4.20;;;14.60;52.20;;;;;;5088572;28;20032;-70
2021/11/01 10:13:40;;;;;;;5.20;4.47;;;14.70;51.90;;;;;;5091611;28;20016;-70
2021/11/01 10:18:52;;;;;;;6.45;5.60;;;14.80;53.00;;;;;;5085847;28;20144;-70
2021/11/01 10:21:20;;;;;;;6.93;4.50;;;15.00;51.80;;;;;;5082464;28;20035;-70
2021/11/01 10:23:48;;;;;;;6.28;4.68;;;15.10;51.40;;;;;;5082174;28;20549;-70
2021/11/01 10:26:17;;;;;;;7.07;4.78;;;15.10;52.00;;;;;;5092632;28;20047;-71
2021/11/01 10:28:47;;;;;;;6.57;4.72;;;15.20;50.90;;;;;;5082785;28;20016;-70
2021/11/01 10:31:19;;;;;;;6.93;4.57;;;15.20;50.30;;;;;;5083294;28;20028;-70
2021/11/01 10:33:46;;;;;;;;;;;15.30;51.30;;;;;;5084428;28;20068;-70
2021/11/01 10:36:23;;;;;;;6.93;5.30;;;15.30;51.50;;;;;;5084240;28;19912;-70
2021/11/01 10:39:21;;;;;;;7.88;4.70;;;15.30;51.40;;;;;;5083628;28;20021;-69
2021/11/01 10:42:04;;;;;;;6.07;4.88;;;15.30;50.30;;;;;;5083811;28;20035;-70
2021/11/01 11:12:38;;;;;;;5.88;5.10;;;15.60;51.20;;;;;;5078829;28;20097;-71
2021/11/01 11:15:11;;;;;;;5.28;4.78;;;15.50;50.40;;;;;;5082341;28;20048;-70
2021/11/01 11:26:01;;;;;;;5.85;5.05;;;15.60;50.80;;;;;;5087218;28;20508;-70
2021/11/01 11:33:51;;;;;;;6.20;5.05;;;15.70;49.90;;;;;;5083376;28;20028;-70
2021/11/01 11:39:49;;;;;;;8.10;6.25;;;15.70;50.50;;;;;;5088832;28;20035;-70
2021/11/01 11:49:49;;;;;;;6.78;5.75;;;15.70;49.90;;;;;;5094480;28;20036;-70
2021/11/01 11:52:15;;;;;;;8.75;5.93;;;15.70;50.80;;;;;;5091782;28;20048;-71
2021/11/01 11:54:47;;;;;;;7.45;6.00;;;15.80;50.40;;;;;;5077072;28;20048;-70
2021/11/01 11:57:17;;;;;;;8.52;6.03;;;15.90;50.50;;;;;;5093592;28;20016;-72
2021/11/01 11:59:48;;;;;;;7.55;6.30;;;15.80;50.30;;;;;;5087078;28;20027;-71
2021/11/01 12:02:14;;;;;;;8.98;6.15;;;15.80;51.00;;;;;;5096615;28;20020;-71
2021/11/01 12:04:46;;;;;;;12.38;7.90;;;15.80;51.80;;;;;;5095749;28;20032;-71
2021/11/01 12:07:15;;;;;;;9.60;5.68;;;15.80;51.30;;;;;;5093986;28;20016;-71
2021/11/01 12:09:57;;;;;;;7.82;6.18;;;15.80;51.30;;;;;;5096009;28;20024;-70
2021/11/01 12:18:00;;;;;;;10.38;5.70;;;15.80;52.20;;;;;;5093003;28;20118;-71
2021/11/01 12:20:26;;;;;;;7.68;6.50;;;15.80;52.00;;;;;;5085780;28;20056;-71
2021/11/01 12:23:02;;;;;;;9.95;5.50;;;15.80;51.50;;;;;;5095294;28;20016;-71
2021/11/01 12:25:36;;;;;;;8.40;6.05;;;15.80;51.30;;;;;;5092612;28;20050;-71
2021/11/01 12:28:04;;;;;;;10.23;6.18;;;15.80;51.60;;;;;;5094046;28;20548;-71
2021/11/01 12:30:39;;;;;;;7.68;5.65;;;15.80;51.50;;;;;;5094787;28;20016;-71
2021/11/01 12:33:05;;;;;;;9.40;5.97;;;15.80;51.60;;;;;;5084202;28;20115;-71
2021/11/01 12:35:32;;;;;;;8.98;6.07;;;15.80;51.30;;;;;;5093884;28;20031;-71
2021/11/01 12:38:06;;;;;;;7.28;5.97;;;15.90;52.30;;;;;;5091673;28;20431;-72
2021/11/01 12:40:47;;;;;;;7.63;5.78;;;15.90;51.90;;;;;;5093438;28;20028;-71
2021/11/01 12:59:40;;;;;;;7.47;5.63;;;15.70;52.30;;;;;;5085401;28;20085;-70
2021/11/01 13:02:15;;;;;;;7.18;5.88;;;15.70;52.60;;;;;;5082685;28;20391;-70
2021/11/01 13:04:42;;;;;;;8.27;5.90;;;15.70;53.10;;;;;;5082016;28;20020;-71
2021/11/01 13:09:44;;;;;;;;;;;15.70;53.00;;;;;;5085228;28;20058;-71
2021/11/01 13:19:55;;;;;;;10.68;6.40;;;15.70;52.90;;;;;;5084867;28;20129;-70
2021/11/01 13:22:27;;;;;;;8.43;6.05;;;15.70;52.90;;;;;;5087735;28;20477;-70
2021/11/01 13:27:31;;;;;;;7.07;5.97;;;15.70;53.30;;;;;;5086329;28;20482;-70
2021/11/01 13:35:28;;;;;;;10.68;6.20;;;15.60;53.50;;;;;;5087532;28;21219;-70
2021/11/01 13:38:02;;;;;;;10.88;6.72;;;15.60;53.20;;;;;;5088257;28;20024;-70
2021/11/01 13:40:34;;;;;;;7.95;6.03;;;15.70;53.50;;;;;;5087466;28;20020;-70
2021/11/01 13:43:00;;;;;;;8.50;5.63;;;15.70;53.40;;;;;;5085549;28;20016;-70
2021/11/01 13:45:26;;;;;;;11.18;5.75;;;15.60;54.30;;;;;;5084725;28;20046;-70
2021/11/01 13:47:58;;;;;;;8.40;6.20;;;15.60;53.40;;;;;;5082570;28;20021;-71
2021/11/01 13:50:34;;;;;;;8.73;5.67;;;15.50;53.80;;;;;;5085207;28;20032;-70
2021/11/01 13:53:14;;;;;;;9.57;5.90;;;15.50;53.50;;;;;;5087691;28;20024;-70
2021/11/01 14:01:27;;;;;;;9.35;7.07;;;15.40;54.00;;;;;;5083454;28;20020;-70
2021/11/01 15:21:15;;;;;;;17.00;10.02;;;12.70;63.50;;;;;;5091073;28;20032;-70
2021/11/01 16:19:52;;;;;;;180.45;72.97;;;9.20;84.90;;;;;;5090838;27;20435;-70
2021/11/01 16:22:18;;;;;;;81.63;41.17;;;9.20;85.30;;;;;;5091815;28;20362;-70
2021/11/01 16:24:45;;;;;;;64.10;37.20;;;9.10;86.40;;;;;;5090515;28;20032;-70
2021/11/01 16:27:14;;;;;;;62.92;35.53;;;9.00;86.50;;;;;;5089684;28;20024;-70
2021/11/01 16:32:14;;;;;;;94.68;45.65;;;8.90;85.90;;;;;;5082793;28;20048;-70
2021/11/01 16:34:40;;;;;;;94.70;48.08;;;8.70;87.00;;;;;;5080329;27;20458;-70
2021/11/01 16:39:47;;;;;;;200.38;72.88;;;8.50;89.10;;;;;;5085493;28;20052;-70
2021/11/01 16:42:20;;;;;;;482.17;163.95;;;8.40;89.70;;;;;;5091123;28;20052;-70
2021/11/01 16:44:47;;;;;;;43.95;24.33;;;8.30;90.90;;;;;;5087866;27;20021;-70
2021/11/01 16:47:14;;;;;;;76.68;34.92;;;8.30;91.80;;;;;;5087803;28;20020;-70
2021/11/01 16:49:40;;;;;;;78.30;33.22;;;8.30;91.80;;;;;;5090293;27;20136;-72
2021/11/01 16:52:16;;;;;;;63.00;30.77;;;8.30;90.90;;;;;;5085160;28;20463;-70
2021/11/01 16:54:49;;;;;;;60.28;31.38;;;8.30;90.20;;;;;;5085737;28;20076;-71
2021/11/01 16:57:30;;;;;;;63.25;30.55;;;8.30;89.80;;;;;;5076358;28;20021;-70
2021/11/01 17:26:10;;;;;;;125.38;49.75;;;8.10;90.40;;;;;;5086282;27;20032;-70
2021/11/01 18:37:53;;;;;;;35.28;20.00;;;6.20;99.90;;;;;;5083075;28;20035;-69
2021/11/01 18:40:37;;;;;;;57.08;32.95;;;6.10;99.90;;;;;;5081024;28;20028;-69
2021/11/01 18:51:33;;;;;;;44.47;24.63;;;5.90;99.90;;;;;;5084675;27;20120;-69
2021/11/01 18:54:17;;;;;;;45.47;25.38;;;5.80;99.90;;;;;;5088338;28;20374;-69
2021/11/01 18:56:44;;;;;;;42.40;24.52;;;5.70;99.90;;;;;;5084297;28;20470;-69
2021/11/01 18:59:10;;;;;;;35.40;20.35;;;5.60;99.90;;;;;;5085388;28;20423;-69
2021/11/01 19:01:43;;;;;;;35.70;19.88;;;5.60;99.90;;;;;;5082714;28;20133;-69
2021/11/01 19:04:20;;;;;;;35.13;19.00;;;5.60;99.90;;;;;;5076040;28;20025;-69
2021/11/01 20:04:25;;;;;;;33.45;19.75;;;5.10;99.90;;;;;;5091895;28;20039;-69
2021/11/01 20:07:23;;;;;;;41.85;22.08;;;5.20;99.90;;;;;;5091754;27;20422;-69
2021/11/01 21:24:32;;;;;;;72.15;39.17;;;5.60;99.90;;;;;;5095266;28;20062;-69
2021/11/01 21:27:03;;;;;;;75.40;42.08;;;5.60;99.90;;;;;;5094874;28;20022;-69
2021/11/01 21:29:32;;;;;;;76.13;38.60;;;5.70;99.90;;;;;;5093525;28;20140;-68
2021/11/01 21:31:58;;;;;;;66.68;36.25;;;5.80;99.90;;;;;;5093549;28;20036;-69
2021/11/01 21:34:33;;;;;;;61.53;33.88;;;5.90;99.90;;;;;;5094779;28;20546;-69
2021/11/01 21:36:59;;;;;;;68.90;38.33;;;5.90;99.90;;;;;;5094869;28;20020;-69
2021/11/01 21:39:25;;;;;;;73.65;39.15;;;5.90;99.90;;;;;;5094655;28;20038;-69
2021/11/01 21:41:51;;;;;;;94.15;50.58;;;6.00;99.90;;;;;;5094512;28;20048;-69
2021/11/01 21:44:17;;;;;;;84.43;46.00;;;6.00;99.90;;;;;;5094922;28;20498;-69
2021/11/01 21:46:42;;;;;;;110.40;58.85;;;6.00;99.90;;;;;;5094602;28;20069;-70
2021/11/01 21:49:08;;;;;;;73.13;40.25;;;5.90;99.90;;;;;;5094324;28;20107;-69
2021/11/01 21:51:38;;;;;;;72.28;37.28;;;6.00;99.90;;;;;;5094435;28;20042;-69
2021/11/01 21:56:42;;;;;;;67.03;34.13;;;6.20;99.90;;;;;;5094816;28;20461;-69
2021/11/01 21:59:54;;;;;;;65.55;31.17;;;6.20;99.90;;;;;;5093148;28;20043;-69
2021/11/01 22:21:30;;;;;;;67.97;36.85;;;6.60;99.90;;;;;;5081053;28;20035;-69
2021/11/01 22:34:26;;;;;;;75.93;41.80;;;6.50;99.90;;;;;;5085741;28;20030;-68
2021/11/01 22:42:22;;;;;;;100.63;51.10;;;6.50;99.90;;;;;;5093995;28;20028;-70
2021/11/01 22:55:40;;;;;;;53.30;31.02;;;6.70;99.90;;;;;;5072571;28;20085;-69
2021/11/01 22:58:06;;;;;;;57.83;30.35;;;6.80;99.90;;;;;;5089141;28;20103;-68
2021/11/01 23:00:39;;;;;;;69.65;35.83;;;6.90;99.90;;;;;;5074725;28;20461;-69
2021/11/01 23:03:18;;;;;;;51.05;26.65;;;6.90;99.90;;;;;;5091906;28;20039;-69
2021/11/01 23:33:38;;;;;;;32.38;19.08;;;7.30;99.90;;;;;;5092950;28;20119;-69
2021/11/01 23:36:07;;;;;;;34.45;19.88;;;7.40;99.90;;;;;;5092919;28;20048;-69
2021/11/01 23:38:32;;;;;;;39.28;19.33;;;7.40;99.90;;;;;;5092879;28;20021;-69
2021/11/01 23:40:58;;;;;;;37.92;21.42;;;7.50;99.90;;;;;;5092840;28;20565;-69
2021/11/01 23:43:24;;;;;;;32.72;19.48;;;7.50;99.90;;;;;;5092805;28;20099;-70
2021/11/01 23:45:50;;;;;;;33.38;18.23;;;7.50;99.90;;;;;;5094716;28;20091;-69
2021/11/01 23:48:19;;;;;;;33.85;19.73;;;7.50;99.90;;;;;;5097024;28;20151;-69
2021/11/01 23:50:48;;;;;;;33.83;19.88;;;7.50;99.90;;;;;;5096821;28;20016;-69
2021/11/01 23:53:32;;;;;;;34.08;20.55;;;7.50;99.90;;;;;;5096948;28;20101;-69
2021/11/01 23:55:58;;;;;;;34.60;20.45;;;7.50;99.90;;;;;;5095552;28;20479;-69
2021/11/01 23:58:23;;;;;;;31.10;19.92;;;7.40;99.90;;;;;;5096677;28;20099;-70
